Foxburg, PA (16036)

5:36 PM EDT on May 29, 2015 (GMT -0400)
Piney Dam | | Change Station
CLOSE
Current Station
Personal Weather Station
Location: Clarion, PA
Elevation: 1354 ft
Nearby Weather Stations
Active Advisory: Severe Thunderstorm Warning

Elev 1354 ft 41.17 °N, 79.43 °W | Updated 7 minutes ago

Mostly Cloudy
Mostly Cloudy
81.3 °F
Feels Like 82 °F
N
3.1
Wind Variable Wind from West
Gusts 3.1 mph

Today
High -- | Low -- °F
--% Chance of Precip.
Yesterday
High -- | Low -- °F
Precip. -- in
5:49 AM 8:42 PM
Waxing Gibbous, 86% visible
Pressure 30.15 in
Visibility 10.0 miles
Clouds Scattered Clouds 5000 ft
Mostly Cloudy 7000 ft
Overcast 8000 ft
Heat Index 82 °F
Dew Point 63 °F
Humidity 53%
Rainfall 0.00 in
Snow Depth Not available.
UV 1 out of 12
Pollen 7.80 out of 12
Air Quality Not available.
Flu Activity Sporadic
METAR KFKL 292115Z AUTO 20007KT 10SM SCT050 BKN070 OVC080 25/17 A3015 RMK AO1 LTG DSNT SE

More Conditions Fewer Conditions

Pressure 30.15 in
Visibility 10.0 miles
Clouds Scattered Clouds 5000 ft
Mostly Cloudy 7000 ft
Overcast 8000 ft
Heat Index 82 °F
Dew Point 63 °F
Humidity 53%
Rainfall 0.00 in
Snow Depth Not available.
UV 1 out of 12
Pollen 7.80 out of 12
Air Quality Not available.
Flu Activity Sporadic
METAR KFKL 292115Z AUTO 20007KT 10SM SCT050 BKN070 OVC080 25/17 A3015 RMK AO1 LTG DSNT SE

More Conditions Fewer Conditions

10-Day Weather Forecast

Almanac

Astronomy

May. 29, 2015 Rise Set
Actual Time
Civil Twilight
Nautical Twilight
Astronomical Twilight
Moon
Length of Visible Light
Length of Day
Tomorrow will be .
, % of the Moon is Illuminated

Today's Extremes

State Highs State Lows

Community

WunderPhotos

Upload Photos

1,825,366 photos uploaded!

WunderBlogs® & News

Nearby

Air Quality

  Air Quality AQ Index Pollutant
Not available.

Snow Depth

Station Depth Elevation

Earthquake Activity

City Distance Mag. Time & Date
Minimum magnitude displayed is 2.5.

Coastal Water Temperatures

Place Temperature

Stations

Nearby Weather Stations

Station Location Temp. Windchill Dew Point Humidity Wind Precip. Elev Updated Type
                   
Severe Thunderstorm Warning
Statement as of 5:26 PM EDT on May 29, 2015

... The Severe Thunderstorm Warning for northwestern Armstrong and
southern Clarion counties is cancelled...

the storm which prompted the warning has weakened below severe
limits... and no longer poses an immediate threat to life or property.
Therefore the warning has been cancelled.

Lat... Lon 4114 7929 4090 7962 4095 7969 4115 7969
      4132 7957
time... Mot... loc 2122z 220deg 18kt 4109 7958